createdAt,value
2023-04-13T00:04:22.447Z,10.47
2023-04-13T00:09:24.574Z,10.30
2023-04-13T00:14:26.497Z,10.20
2023-04-13T00:19:28.386Z,10.10
2023-04-13T00:24:30.237Z,9.99
2023-04-13T00:29:32.153Z,9.90
2023-04-13T00:34:34.036Z,9.81
2023-04-13T00:39:35.901Z,9.78
2023-04-13T00:44:37.851Z,9.69
2023-04-13T00:49:39.672Z,9.63
2023-04-13T00:54:41.507Z,9.60
2023-04-13T00:59:43.471Z,9.49
2023-04-13T01:04:45.409Z,9.46
2023-04-13T01:10:34.212Z,9.36
2023-04-13T01:15:37.594Z,9.29
2023-04-13T01:20:41.300Z,9.23
2023-04-13T01:25:56.198Z,9.18
2023-04-13T01:30:58.099Z,9.11
2023-04-13T01:36:00.145Z,9.08
2023-04-13T01:41:02.099Z,9.04
2023-04-13T01:46:13.500Z,8.97
2023-04-13T01:51:27.838Z,8.95
2023-04-13T01:56:29.841Z,8.87
2023-04-13T02:01:31.693Z,8.84
2023-04-13T02:06:33.790Z,8.77
2023-04-13T02:11:35.883Z,8.75
2023-04-13T02:16:37.785Z,8.73
2023-04-13T02:21:39.765Z,8.71
2023-04-13T02:26:41.601Z,8.71
2023-04-13T02:31:43.580Z,8.71
2023-04-13T02:36:45.476Z,8.73
2023-04-13T02:41:47.332Z,8.72
2023-04-13T02:46:49.222Z,8.82
2023-04-13T02:51:51.038Z,8.85
2023-04-13T02:56:53.034Z,8.93
2023-04-13T03:01:55.083Z,8.99
2023-04-13T03:06:56.998Z,8.91
2023-04-13T03:11:58.891Z,8.83
2023-04-13T03:17:00.840Z,8.85
2023-04-13T03:22:02.693Z,8.85
2023-04-13T03:27:04.709Z,8.79
2023-04-13T03:32:06.850Z,9.07
2023-04-13T03:37:08.719Z,9.64
2023-04-13T03:42:10.620Z,10.03
2023-04-13T03:47:12.418Z,10.15
2023-04-13T03:52:14.299Z,10.24
2023-04-13T03:57:16.158Z,10.37
2023-04-13T04:02:18.130Z,10.67
2023-04-13T04:07:20.089Z,10.99
2023-04-13T04:12:21.888Z,11.28
2023-04-13T04:17:23.751Z,10.81
2023-04-13T04:22:25.614Z,10.58
2023-04-13T04:27:27.468Z,10.62
2023-04-13T04:32:29.478Z,10.52
2023-04-13T04:37:31.389Z,10.70
2023-04-13T04:42:33.333Z,10.79
2023-04-13T04:47:35.373Z,11.07
2023-04-13T04:52:37.698Z,11.07
2023-04-13T04:57:39.547Z,11.38
2023-04-13T05:02:41.997Z,11.38
2023-04-13T05:07:43.925Z,11.63
2023-04-13T05:12:45.938Z,11.63
2023-04-13T05:17:47.894Z,11.97
2023-04-13T05:22:49.843Z,11.83
2023-04-13T05:27:51.687Z,12.19
2023-04-13T05:32:53.599Z,12.22
2023-04-13T05:37:57.065Z,12.59
2023-04-13T05:42:59.113Z,13.72
2023-04-13T05:48:01.163Z,13.91
2023-04-13T05:53:03.232Z,14.43
2023-04-13T05:58:05.040Z,15.89
2023-04-13T06:03:07.463Z,16.45
2023-04-13T06:08:09.530Z,17.03
2023-04-13T06:13:11.555Z,16.07
2023-04-13T06:18:15.361Z,15.81
2023-04-13T06:23:17.312Z,16.77
2023-04-13T06:28:19.773Z,18.82
2023-04-13T06:33:21.681Z,20.31
2023-04-13T06:38:23.529Z,21.38
2023-04-13T06:43:29.479Z,22.89
2023-04-13T06:48:31.971Z,21.39
2023-04-13T06:53:34.566Z,20.87
2023-04-13T06:58:36.502Z,19.79
2023-04-13T07:03:38.328Z,18.51
2023-04-13T07:08:40.324Z,18.74
2023-04-13T07:13:42.500Z,19.24
2023-04-13T07:18:44.406Z,19.46
2023-04-13T07:23:46.315Z,18.92
2023-04-13T07:28:48.246Z,22.45
2023-04-13T07:33:50.166Z,22.38
2023-04-13T07:38:51.789Z,20.86
2023-04-13T07:43:53.663Z,22.14
2023-04-13T07:48:55.670Z,23.06
2023-04-13T07:53:57.816Z,19.53
2023-04-13T07:58:59.764Z,17.93
2023-04-13T08:04:02.093Z,17.18
2023-04-13T08:09:04.229Z,17.10
2023-04-13T08:14:06.089Z,16.78
2023-04-13T08:19:07.871Z,16.30
2023-04-13T08:24:09.934Z,16.03
2023-04-13T08:29:11.879Z,16.22
2023-04-13T08:34:13.675Z,16.01
2023-04-13T08:39:15.646Z,16.41
2023-04-13T08:44:17.793Z,16.25
2023-04-13T08:49:20.398Z,16.20
2023-04-13T08:54:22.390Z,16.36
2023-04-13T08:59:25.852Z,16.19
2023-04-13T09:04:27.928Z,16.14
2023-04-13T09:09:29.763Z,16.19
2023-04-13T09:14:31.662Z,16.09
2023-04-13T09:19:33.578Z,16.14
2023-04-13T09:24:41.746Z,16.53
2023-04-13T09:29:49.434Z,16.71
2023-04-13T09:35:04.542Z,16.22
2023-04-13T09:40:15.852Z,16.20
2023-04-13T09:45:17.839Z,16.43
2023-04-13T09:50:23.907Z,16.18
2023-04-13T09:55:25.882Z,16.01
2023-04-13T10:00:27.741Z,16.34
2023-04-13T10:05:29.647Z,16.43
2023-04-13T10:10:31.588Z,16.26
2023-04-13T10:16:04.187Z,16.35
2023-04-13T10:21:06.266Z,16.70
2023-04-13T10:26:08.204Z,16.44
2023-04-13T10:31:12.019Z,16.43
2023-04-13T10:36:14.326Z,16.24
2023-04-13T10:41:25.922Z,16.14
2023-04-13T10:46:27.960Z,16.22
2023-04-13T10:51:40.067Z,16.36
2023-04-13T10:56:41.971Z,16.54
2023-04-13T11:01:43.889Z,16.34
2023-04-13T11:06:45.720Z,16.40
2023-04-13T11:11:51.714Z,16.48
2023-04-13T11:16:58.434Z,16.73
2023-04-13T11:22:00.721Z,16.60
2023-04-13T11:27:02.687Z,16.59
2023-04-13T11:32:04.844Z,16.73
2023-04-13T11:37:06.820Z,16.78
2023-04-13T11:42:08.660Z,16.91
2023-04-13T11:47:10.628Z,17.00
2023-04-13T11:52:12.522Z,16.71
2023-04-13T11:57:14.451Z,16.92
2023-04-13T12:02:21.873Z,16.96
2023-04-13T12:07:25.626Z,16.75
2023-04-13T12:22:52.559Z,16.96
2023-04-13T12:28:01.669Z,16.58
2023-04-13T12:33:03.790Z,16.81
2023-04-13T12:38:05.759Z,16.68
2023-04-13T12:43:07.638Z,16.63
2023-04-13T12:48:09.638Z,16.48
2023-04-13T12:53:11.685Z,16.48
2023-04-13T12:58:13.602Z,16.53
2023-04-13T13:03:15.711Z,16.62
2023-04-13T13:08:17.897Z,16.52
2023-04-13T13:13:19.922Z,16.74
2023-04-13T13:18:22.010Z,16.68
2023-04-13T13:23:23.975Z,16.66
2023-04-13T13:28:25.880Z,16.68
2023-04-13T13:33:27.773Z,16.47
2023-04-13T13:38:29.682Z,16.25
2023-04-13T13:43:31.585Z,16.13
2023-04-13T13:48:33.743Z,16.23
2023-04-13T13:53:35.477Z,16.01
2023-04-13T13:58:37.332Z,15.90
2023-04-13T14:03:39.394Z,16.00
2023-04-13T14:08:41.490Z,15.90
2023-04-13T14:13:43.926Z,16.03
2023-04-13T14:18:47.914Z,15.74
2023-04-13T14:23:50.892Z,15.70
2023-04-13T14:28:52.773Z,15.60
2023-04-13T14:33:54.893Z,15.40
2023-04-13T14:38:56.856Z,15.14
2023-04-13T14:43:58.821Z,14.95
2023-04-13T14:49:00.994Z,14.94
2023-04-13T14:54:03.445Z,14.77
2023-04-13T14:59:05.232Z,14.68
2023-04-13T15:04:07.483Z,14.55
2023-04-13T15:09:09.415Z,14.45
2023-04-13T15:14:11.386Z,14.27
2023-04-13T15:19:13.494Z,14.17
2023-04-13T15:24:16.804Z,13.87
2023-04-13T15:29:18.670Z,13.93
2023-04-13T15:34:20.548Z,13.66
2023-04-13T15:39:22.468Z,13.55
2023-04-13T15:44:25.004Z,13.47
2023-04-13T15:49:26.636Z,13.34
2023-04-13T15:54:28.524Z,13.24
2023-04-13T15:59:30.462Z,13.21
2023-04-13T16:04:32.652Z,13.07
2023-04-13T16:09:34.729Z,12.95
2023-04-13T16:14:36.661Z,12.84
2023-04-13T16:19:38.501Z,12.69
2023-04-13T16:24:40.327Z,12.63
2023-04-13T16:29:42.102Z,12.60
2023-04-13T16:34:44.021Z,12.42
2023-04-13T16:39:45.936Z,12.35
2023-04-13T16:44:47.858Z,12.21
2023-04-13T16:49:50.084Z,12.08
2023-04-13T16:54:52.133Z,11.98
2023-04-13T16:59:54.049Z,11.92
2023-04-13T17:04:55.930Z,11.87
2023-04-13T17:09:57.948Z,11.84
2023-04-13T17:14:59.962Z,11.80
2023-04-13T17:20:01.941Z,11.63
2023-04-13T17:25:04.159Z,11.59
2023-04-13T17:30:07.068Z,11.53
2023-04-13T17:35:09.252Z,11.47
2023-04-13T17:40:11.594Z,11.35
2023-04-13T17:45:13.481Z,11.20
2023-04-13T17:50:15.397Z,11.07
2023-04-13T17:55:17.352Z,11.00
2023-04-13T18:00:20.190Z,10.91
2023-04-13T18:05:22.049Z,10.64
2023-04-13T18:10:23.890Z,10.51
2023-04-13T18:15:25.876Z,10.36
2023-04-13T18:20:27.663Z,10.38
2023-04-13T18:25:29.491Z,10.28
2023-04-13T18:30:31.494Z,10.30
2023-04-13T18:35:33.480Z,10.08
2023-04-13T18:40:35.558Z,10.05
2023-04-13T18:45:37.883Z,9.95
2023-04-13T18:50:39.912Z,9.82
2023-04-13T18:55:42.695Z,9.78
2023-04-13T19:00:45.726Z,9.63
2023-04-13T19:05:47.659Z,9.56
2023-04-13T19:10:49.554Z,9.48
2023-04-13T19:15:51.471Z,9.32
2023-04-13T19:20:53.445Z,9.26
2023-04-13T19:26:44.911Z,9.15
2023-04-13T19:31:58.920Z,9.04
2023-04-13T19:37:00.778Z,8.98
2023-04-13T19:42:02.638Z,8.81
2023-04-13T19:47:04.569Z,8.85
2023-04-13T19:52:06.482Z,8.76
2023-04-13T19:57:08.382Z,8.51
2023-04-13T20:02:10.312Z,8.38
2023-04-13T20:07:12.323Z,8.22
2023-04-13T20:12:14.167Z,8.05
2023-04-13T20:17:16.036Z,8.04
2023-04-13T20:22:17.924Z,8.01
2023-04-13T20:27:20.006Z,7.88
2023-04-13T20:32:21.899Z,7.75
2023-04-13T20:37:23.840Z,7.71
2023-04-13T20:42:25.855Z,7.63
2023-04-13T20:47:28.277Z,7.52
2023-04-13T20:52:30.241Z,7.38
2023-04-13T20:57:32.120Z,7.32
2023-04-13T21:02:34.310Z,7.20
2023-04-13T21:07:37.180Z,7.11
2023-04-13T21:12:38.792Z,7.00
2023-04-13T21:17:40.786Z,6.92
2023-04-13T21:22:42.750Z,6.80
2023-04-13T21:27:44.636Z,6.67
2023-04-13T21:32:46.568Z,6.60
2023-04-13T21:37:48.476Z,6.50
2023-04-13T21:42:50.488Z,6.48
2023-04-13T21:47:52.317Z,6.37
2023-04-13T21:52:54.281Z,6.37
2023-04-13T21:57:56.244Z,6.28
2023-04-13T22:02:58.256Z,6.19
2023-04-13T22:08:00.215Z,6.14
2023-04-13T22:13:02.040Z,6.05
2023-04-13T22:18:04.171Z,6.01
2023-04-13T22:23:06.078Z,6.05
2023-04-13T22:28:08.021Z,5.94
2023-04-13T22:33:10.001Z,5.71
2023-04-13T22:38:11.881Z,5.80
2023-04-13T22:43:13.780Z,5.60
2023-04-13T22:48:15.739Z,5.45
2023-04-13T22:53:17.683Z,5.24
2023-04-13T22:58:19.599Z,5.17
2023-04-13T23:03:21.697Z,5.13
2023-04-13T23:08:23.789Z,4.82
2023-04-13T23:13:25.683Z,4.74
2023-04-13T23:18:27.605Z,4.70
2023-04-13T23:23:29.493Z,4.63
2023-04-13T23:28:31.470Z,4.37
2023-04-13T23:33:34.176Z,4.26
2023-04-13T23:38:35.954Z,4.26
2023-04-13T23:43:37.784Z,4.08
2023-04-13T23:48:39.689Z,3.89
2023-04-13T23:53:41.572Z,3.84
2023-04-13T23:58:43.551Z,3.73
